Stockholm, Maine
Current Conditions -  °F | °C
As of 9:54 AM on Monday 22 Dec 2014 (Local Time) from KCAR Reporting Station
Overcast Overcast  
Wind Chill: 24°   Ceiling: 600
Heat Index: 24°   Visibility: 10mi
Dew Point: 21°   Wind: 3mph
Humidity: 88%   Direction: 160°SSE
Pressure: 30.42"   Gusts: NA
Location:  47.04°N, 68.14°W
Report Text: KCAR 221454Z AUTO 16003KT 10SM OVC006 M04/M06 A3042 RMK AO2 SLP315 T10441061 51010
Loading
Personal Weather Stations






























Interactive Weather Map New forecast layout! Learn more

10-Day Weather Forecast

Advertisements
Track Severe Weather on mobile